createdAt,value
2023-03-26T00:01:36.304Z,96306.06
2023-03-26T00:04:05.643Z,96298.19
2023-03-26T00:06:38.743Z,96300.03
2023-03-26T00:09:12.995Z,96296.69
2023-03-26T00:11:39.902Z,96308.06
2023-03-26T00:14:06.680Z,96300.84
2023-03-26T00:16:33.897Z,96307.22
2023-03-26T00:19:02.392Z,96302.03
2023-03-26T00:21:30.749Z,96312.56
2023-03-26T00:24:14.777Z,96303.03
2023-03-26T00:26:42.224Z,96307.03
2023-03-26T00:29:10.164Z,96303.41
2023-03-26T00:31:39.840Z,96303.22
2023-03-26T00:34:07.106Z,96306.56
2023-03-26T00:36:35.962Z,96296.53
2023-03-26T00:39:05.902Z,96291.19
2023-03-26T00:41:36.865Z,96287.47
2023-03-26T00:44:04.207Z,96283.97
2023-03-26T00:46:32.031Z,96285.81
2023-03-26T00:49:00.557Z,96285.81
2023-03-26T00:51:28.761Z,96276.78
2023-03-26T00:53:57.249Z,96272.25
2023-03-26T00:56:24.779Z,96263.91
2023-03-26T00:58:51.960Z,96261.88
2023-03-26T01:01:29.148Z,96266.56
2023-03-26T01:04:08.279Z,96258.38
2023-03-26T01:06:41.316Z,96262.75
2023-03-26T01:09:18.673Z,96259.09
2023-03-26T01:11:47.806Z,96255.91
2023-03-26T01:14:23.590Z,96249.53
2023-03-26T01:16:58.739Z,96238.66
2023-03-26T01:19:45.775Z,96234.47
2023-03-26T01:22:24.364Z,96234.28
2023-03-26T01:24:53.486Z,96229.44
2023-03-26T01:27:43.254Z,96237.66
2023-03-26T01:30:36.995Z,96229.63
2023-03-26T01:33:29.943Z,96225.94
2023-03-26T01:36:13.358Z,96221.25
2023-03-26T01:39:03.606Z,96217.72
2023-03-26T01:41:44.256Z,96208.53
2023-03-26T01:44:27.578Z,96201.16
2023-03-26T01:46:55.394Z,96192.78
2023-03-26T01:49:22.392Z,96186.59
2023-03-26T01:51:51.185Z,96170.69
2023-03-26T01:54:21.851Z,96177.91
2023-03-26T01:57:14.187Z,96171.34
2023-03-26T02:00:18.928Z,96165.34
2023-03-26T02:03:17.511Z,96145.41
2023-03-26T02:05:54.625Z,96140.06
2023-03-26T02:08:35.444Z,96137.75
2023-03-26T02:11:13.202Z,96135.91
2023-03-26T02:13:43.017Z,96140.91
2023-03-26T02:16:16.169Z,96125.69
2023-03-26T02:18:44.972Z,96118.47
2023-03-26T02:21:19.990Z,96122.19
2023-03-26T02:23:50.699Z,96124.84
2023-03-26T02:26:20.203Z,96128.19
2023-03-26T02:29:04.510Z,96120.97
2023-03-26T02:31:32.719Z,96121.16
2023-03-26T02:33:59.550Z,96124.16
2023-03-26T02:36:29.136Z,96119.81
2023-03-26T02:39:00.162Z,96110.97
2023-03-26T02:41:28.693Z,96114.78
2023-03-26T02:44:02.625Z,96122.81
2023-03-26T02:46:55.362Z,96117.78
2023-03-26T02:49:51.224Z,96112.09
2023-03-26T02:52:24.499Z,96100.06
2023-03-26T02:54:53.446Z,96094.19
2023-03-26T02:57:23.846Z,96091.22
2023-03-26T03:00:13.077Z,96082.53
2023-03-26T03:02:47.813Z,96083.69
2023-03-26T03:05:31.490Z,96062.44
2023-03-26T03:08:18.193Z,96068.47
2023-03-26T03:11:18.305Z,96064.13
2023-03-26T03:13:47.086Z,96066.09
2023-03-26T03:16:21.214Z,96060.41
2023-03-26T03:18:54.281Z,96049.38
2023-03-26T03:21:28.121Z,96048.19
2023-03-26T03:24:00.204Z,96045.00
2023-03-26T03:26:29.709Z,96040.81
2023-03-26T03:28:59.137Z,96027.94
2023-03-26T03:31:27.176Z,96023.25
2023-03-26T03:33:59.624Z,96026.59
2023-03-26T03:36:30.317Z,96024.91
2023-03-26T03:39:05.026Z,96024.75
2023-03-26T03:41:32.700Z,96018.56
2023-03-26T03:44:02.256Z,96015.88
2023-03-26T03:46:31.662Z,96023.72
2023-03-26T03:48:58.908Z,96019.88
2023-03-26T03:51:31.377Z,96011.66
2023-03-26T03:54:17.844Z,96006.13
2023-03-26T03:56:48.678Z,96007.81
2023-03-26T03:59:37.209Z,95994.44
2023-03-26T04:02:07.647Z,95998.97
2023-03-26T04:04:41.866Z,95989.91
2023-03-26T04:07:11.654Z,95986.22
2023-03-26T04:10:03.032Z,95976.50
2023-03-26T04:12:47.877Z,95979.00
2023-03-26T04:15:16.861Z,95989.72
2023-03-26T04:17:45.418Z,95984.38
2023-03-26T04:20:16.066Z,95975.50
2023-03-26T04:22:46.588Z,95958.41
2023-03-26T04:25:15.528Z,95945.88
2023-03-26T04:27:49.122Z,95934.69
2023-03-26T04:30:24.623Z,95931.31
2023-03-26T04:33:04.151Z,95935.16
2023-03-26T04:35:37.015Z,95947.09
2023-03-26T04:38:06.439Z,95941.25
2023-03-26T04:40:38.974Z,95932.69
2023-03-26T04:43:24.397Z,95929.19
2023-03-26T04:46:23.560Z,95908.09
2023-03-26T04:49:02.045Z,95916.63
2023-03-26T04:51:38.234Z,95918.47
2023-03-26T04:54:14.318Z,95917.28
2023-03-26T04:57:03.745Z,95922.66
2023-03-26T04:59:41.185Z,95913.09
2023-03-26T05:02:12.895Z,95920.78
2023-03-26T05:04:49.850Z,95916.91
2023-03-26T05:07:23.750Z,95912.56
2023-03-26T05:09:54.168Z,95897.19
2023-03-26T05:12:34.547Z,95896.16
2023-03-26T05:15:24.653Z,95881.13
2023-03-26T05:18:06.152Z,95868.72
2023-03-26T05:20:45.273Z,95863.53
2023-03-26T05:23:12.572Z,95855.50
2023-03-26T05:25:47.058Z,95846.44
2023-03-26T05:28:19.181Z,95844.44
2023-03-26T05:30:54.220Z,95842.41
2023-03-26T05:33:23.313Z,95843.09
2023-03-26T05:36:13.370Z,95847.59
2023-03-26T05:38:47.557Z,95844.41
2023-03-26T05:41:19.387Z,95841.19
2023-03-26T05:43:48.776Z,95831.09
2023-03-26T05:46:20.262Z,95813.66
2023-03-26T05:48:47.572Z,95803.97
2023-03-26T05:51:17.893Z,95795.75
2023-03-26T05:53:56.771Z,95796.94
2023-03-26T05:56:26.297Z,95791.94
2023-03-26T05:59:12.017Z,95792.28
2023-03-26T06:02:04.945Z,95790.44
2023-03-26T06:04:57.731Z,95781.56
2023-03-26T06:07:35.626Z,95781.41
2023-03-26T06:10:10.612Z,95768.84
2023-03-26T06:12:38.118Z,95763.97
2023-03-26T06:15:07.079Z,95753.06
2023-03-26T06:17:47.856Z,95758.06
2023-03-26T06:20:35.499Z,95761.22
2023-03-26T06:23:08.515Z,95757.53
2023-03-26T06:25:51.255Z,95763.53
2023-03-26T06:28:38.510Z,95767.03
2023-03-26T06:31:20.933Z,95771.19
2023-03-26T06:33:56.872Z,95754.09
2023-03-26T06:36:23.842Z,95744.06
2023-03-26T06:38:51.375Z,95729.44
2023-03-26T06:41:18.234Z,95725.38
2023-03-26T06:44:03.628Z,95724.19
2023-03-26T06:47:08.353Z,95725.69
2023-03-26T06:49:50.199Z,95719.09
2023-03-26T06:52:37.789Z,95713.41
2023-03-26T06:55:28.355Z,95711.34
2023-03-26T06:58:06.182Z,95712.84
2023-03-26T07:00:56.040Z,95708.50
2023-03-26T07:03:41.455Z,95709.97
2023-03-26T07:06:27.393Z,95687.53
2023-03-26T07:09:32.581Z,95691.03
2023-03-26T07:12:22.229Z,95676.81
2023-03-26T07:15:08.372Z,95687.88
2023-03-26T07:17:56.260Z,95654.22
2023-03-26T07:20:27.334Z,95662.47
2023-03-26T07:22:54.856Z,95678.28
2023-03-26T07:25:41.013Z,95674.66
2023-03-26T07:28:36.010Z,95641.41
2023-03-26T07:32:18.484Z,95656.34
2023-03-26T07:35:14.678Z,95644.16
2023-03-26T07:38:35.247Z,95634.00
2023-03-26T07:41:59.816Z,95628.81
2023-03-26T07:45:33.774Z,95622.34
2023-03-26T07:48:27.329Z,95629.38
2023-03-26T07:51:21.132Z,95621.69
2023-03-26T07:54:11.178Z,95627.59
2023-03-26T07:57:03.533Z,95618.66
2023-03-26T07:59:51.984Z,95606.91
2023-03-26T08:03:01.228Z,95613.09
2023-03-26T08:06:22.250Z,95599.50
2023-03-26T08:09:15.382Z,95605.91
2023-03-26T08:12:21.180Z,95596.38
2023-03-26T08:15:43.843Z,95593.06
2023-03-26T08:18:52.305Z,95585.03
2023-03-26T08:21:28.780Z,95595.53
2023-03-26T08:24:10.934Z,95598.22
2023-03-26T08:27:08.634Z,95590.19
2023-03-26T08:29:55.019Z,95590.66
2023-03-26T08:32:22.401Z,95591.78
2023-03-26T08:34:49.577Z,95588.72
2023-03-26T08:37:16.402Z,95588.34
2023-03-26T08:39:43.189Z,95588.63
2023-03-26T08:42:42.374Z,95592.34
2023-03-26T08:45:30.330Z,95590.75
2023-03-26T08:48:28.872Z,95592.72
2023-03-26T08:51:50.466Z,95589.47
2023-03-26T08:54:52.359Z,95589.72
2023-03-26T08:58:08.906Z,95591.69
2023-03-26T09:00:57.708Z,95587.69
2023-03-26T09:04:03.680Z,95569.00
2023-03-26T09:07:09.743Z,95576.28
2023-03-26T09:10:28.031Z,95569.16
2023-03-26T09:13:28.587Z,95577.72
2023-03-26T09:16:06.217Z,95565.06
2023-03-26T09:19:30.618Z,95565.31
2023-03-26T09:22:40.285Z,95559.63
2023-03-26T09:25:55.730Z,95570.44
2023-03-26T09:29:00.786Z,95565.13
2023-03-26T09:31:59.437Z,95564.19
2023-03-26T09:35:06.288Z,95573.59
2023-03-26T09:38:03.285Z,95571.84
2023-03-26T09:40:46.342Z,95563.50
2023-03-26T09:43:59.946Z,95565.69
2023-03-26T09:46:41.732Z,95569.13
2023-03-26T09:49:29.590Z,95572.28
2023-03-26T09:52:18.026Z,95576.50
2023-03-26T09:55:00.997Z,95570.31
2023-03-26T09:57:39.515Z,95564.53
2023-03-26T10:00:27.335Z,95565.59
2023-03-26T10:03:26.899Z,95567.50
2023-03-26T10:06:09.690Z,95557.59
2023-03-26T10:08:51.951Z,95577.31
2023-03-26T10:11:56.290Z,95577.34
2023-03-26T10:14:29.319Z,95566.22
2023-03-26T10:17:35.788Z,95556.28
2023-03-26T10:20:26.705Z,95572.44
2023-03-26T10:23:04.830Z,95549.28
2023-03-26T10:26:09.793Z,95554.06
2023-03-26T10:29:12.124Z,95553.88
2023-03-26T10:32:06.562Z,95568.16
2023-03-26T10:34:51.780Z,95551.00
2023-03-26T10:37:55.446Z,95537.94
2023-03-26T10:41:00.492Z,95559.44
2023-03-26T10:43:57.660Z,95585.69
2023-03-26T10:47:22.385Z,95558.34
2023-03-26T10:50:23.950Z,95562.88
2023-03-26T10:53:07.206Z,95551.50
2023-03-26T10:55:47.416Z,95551.72
2023-03-26T10:58:24.555Z,95554.00
2023-03-26T11:01:11.832Z,95537.88
2023-03-26T11:03:56.184Z,95534.16
2023-03-26T11:06:43.067Z,95523.03
2023-03-26T11:09:45.004Z,95552.44
2023-03-26T11:12:33.606Z,95538.59
2023-03-26T11:15:52.508Z,95485.81
2023-03-26T11:19:11.429Z,95529.75
2023-03-26T11:21:54.424Z,95555.22
2023-03-26T11:24:43.648Z,95534.09
2023-03-26T11:27:30.146Z,95545.66
2023-03-26T11:30:12.346Z,95542.94
2023-03-26T11:32:45.854Z,95518.66
2023-03-26T11:35:40.158Z,95538.56
2023-03-26T11:38:21.924Z,95520.91
2023-03-26T11:40:55.132Z,95541.25
2023-03-26T11:43:36.767Z,95539.78
2023-03-26T11:46:07.580Z,95552.47
2023-03-26T11:48:44.312Z,95557.28
2023-03-26T11:51:36.661Z,95556.88
2023-03-26T11:54:06.007Z,95549.22
2023-03-26T11:57:05.734Z,95533.28
2023-03-26T11:59:55.562Z,95544.22
2023-03-26T12:02:33.921Z,95540.50
2023-03-26T12:05:26.613Z,95536.56
2023-03-26T12:08:03.539Z,95543.41
2023-03-26T12:10:39.440Z,95532.22
2023-03-26T12:13:53.392Z,95546.72
2023-03-26T12:16:22.439Z,95538.88
2023-03-26T12:19:00.286Z,95546.94
2023-03-26T12:21:27.308Z,95535.97
2023-03-26T12:24:08.717Z,95532.63
2023-03-26T12:26:42.815Z,95534.06
2023-03-26T12:29:17.327Z,95519.91
2023-03-26T12:32:03.068Z,95522.38
2023-03-26T12:34:36.128Z,95518.22
2023-03-26T12:37:06.757Z,95517.56
2023-03-26T12:40:10.665Z,95515.69
2023-03-26T12:44:50.756Z,95501.13
2023-03-26T12:45:24.093Z,95497.78
2023-03-26T12:47:59.727Z,95498.19
2023-03-26T12:51:06.866Z,95493.44
2023-03-26T12:54:15.241Z,95487.59
2023-03-26T12:56:47.729Z,95494.84
2023-03-26T12:59:36.394Z,95498.56
2023-03-26T13:02:43.761Z,95490.06
2023-03-26T13:05:39.827Z,95498.78
2023-03-26T13:08:46.530Z,95493.16
2023-03-26T13:11:23.772Z,95471.75
2023-03-26T13:13:59.420Z,95473.41
2023-03-26T13:16:44.501Z,95462.22
2023-03-26T13:19:27.022Z,95461.84
2023-03-26T13:22:09.029Z,95451.22
2023-03-26T13:25:23.726Z,95457.69
2023-03-26T13:28:07.509Z,95459.72
2023-03-26T13:30:42.089Z,95447.25
2023-03-26T13:33:20.822Z,95452.66
2023-03-26T13:36:14.344Z,95457.22
2023-03-26T13:39:24.830Z,95471.56
2023-03-26T13:42:26.628Z,95462.25
2023-03-26T13:45:30.097Z,95467.03
2023-03-26T13:47:59.156Z,95466.16
2023-03-26T13:50:34.187Z,95464.56
2023-03-26T13:53:13.773Z,95455.25
2023-03-26T13:55:55.908Z,95457.75
2023-03-26T13:58:38.745Z,95466.91
2023-03-26T14:01:19.388Z,95468.59
2023-03-26T14:04:10.867Z,95474.41
2023-03-26T14:06:57.082Z,95468.25
2023-03-26T14:09:48.278Z,95467.22
2023-03-26T14:12:48.765Z,95465.38
2023-03-26T14:15:26.756Z,95472.25
2023-03-26T14:18:22.638Z,95465.00
2023-03-26T14:21:17.057Z,95463.56
2023-03-26T14:24:01.952Z,95472.88
2023-03-26T14:26:58.493Z,95480.78
2023-03-26T14:29:56.514Z,95493.44
2023-03-26T14:32:37.829Z,95484.16
2023-03-26T14:35:23.254Z,95496.59
2023-03-26T14:38:07.897Z,95518.53
2023-03-26T14:40:57.892Z,95562.03
2023-03-26T14:43:41.776Z,95589.56
2023-03-26T14:46:23.686Z,95571.59
2023-03-26T14:49:32.601Z,95559.53
2023-03-26T14:52:36.835Z,95559.78
2023-03-26T14:55:14.031Z,95545.22
2023-03-26T14:58:07.442Z,95544.88
2023-03-26T15:01:24.209Z,95547.09
2023-03-26T15:04:09.652Z,95543.72
2023-03-26T15:07:18.819Z,95558.06
2023-03-26T15:10:11.523Z,95551.78
2023-03-26T15:13:03.578Z,95577.47
2023-03-26T15:15:57.698Z,95576.44
2023-03-26T15:19:04.006Z,95569.69
2023-03-26T15:21:57.916Z,95574.47
2023-03-26T15:24:46.205Z,95564.19
2023-03-26T15:27:57.425Z,95553.72
2023-03-26T15:30:53.693Z,95538.88
2023-03-26T15:34:06.070Z,95524.19
2023-03-26T15:37:10.624Z,95514.63
2023-03-26T15:40:16.537Z,95516.09
2023-03-26T15:43:11.049Z,95521.56
2023-03-26T15:46:02.739Z,95518.81
2023-03-26T15:48:57.653Z,95518.75
2023-03-26T15:51:47.635Z,95508.59
2023-03-26T15:54:36.864Z,95517.38
2023-03-26T15:57:32.740Z,95499.56
2023-03-26T16:00:22.157Z,95508.53
2023-03-26T16:03:10.795Z,95504.47
2023-03-26T16:06:19.614Z,95497.56
2023-03-26T16:08:58.135Z,95496.38
2023-03-26T16:11:53.989Z,95490.38
2023-03-26T16:14:36.230Z,95499.22
2023-03-26T16:17:06.366Z,95499.44
2023-03-26T16:19:40.965Z,95495.91
2023-03-26T16:22:16.236Z,95503.59
2023-03-26T16:24:47.619Z,95505.88
2023-03-26T16:27:14.284Z,95542.66
2023-03-26T16:29:59.931Z,95529.81
2023-03-26T16:32:45.978Z,95540.06
2023-03-26T16:35:16.472Z,95548.09
2023-03-26T16:37:50.338Z,95553.44
2023-03-26T16:40:17.740Z,95550.22
2023-03-26T16:43:14.948Z,95553.72
2023-03-26T16:46:15.513Z,95563.31
2023-03-26T16:48:57.296Z,95569.88
2023-03-26T16:52:02.494Z,95554.25
2023-03-26T16:54:50.545Z,95548.41
2023-03-26T16:57:36.849Z,95554.22
2023-03-26T17:00:48.432Z,95556.09
2023-03-26T17:03:35.433Z,95550.53
2023-03-26T17:06:17.397Z,95556.75
2023-03-26T17:09:05.357Z,95574.38
2023-03-26T17:11:56.456Z,95572.63
2023-03-26T17:14:53.822Z,95563.03
2023-03-26T17:17:43.807Z,95556.59
2023-03-26T17:21:01.880Z,95566.16
2023-03-26T17:23:55.423Z,95579.28
2023-03-26T17:26:53.734Z,95563.88
2023-03-26T17:29:44.854Z,95569.78
2023-03-26T17:32:14.990Z,95564.50
2023-03-26T17:34:50.924Z,95567.59
2023-03-26T17:37:23.453Z,95572.69
2023-03-26T17:40:01.994Z,95575.91
2023-03-26T17:42:32.638Z,95572.75
2023-03-26T17:45:23.300Z,95568.50
2023-03-26T17:48:12.907Z,95566.38
2023-03-26T17:50:56.641Z,95563.84
2023-03-26T17:53:30.830Z,95571.03
2023-03-26T17:56:03.626Z,95564.03
2023-03-26T17:58:36.360Z,95560.88
2023-03-26T18:01:16.584Z,95569.13
2023-03-26T18:03:50.594Z,95566.25
2023-03-26T18:06:40.994Z,95563.75
2023-03-26T18:09:46.704Z,95565.41
2023-03-26T18:12:31.267Z,95574.94
2023-03-26T18:15:58.305Z,95585.16
2023-03-26T18:18:44.104Z,95591.16
2023-03-26T18:21:19.993Z,95594.69
2023-03-26T18:23:48.985Z,95600.03
2023-03-26T18:26:21.855Z,95603.91
2023-03-26T18:29:09.174Z,95590.88
2023-03-26T18:31:40.913Z,95585.50
2023-03-26T18:34:18.929Z,95591.22
2023-03-26T18:37:00.998Z,95602.66
2023-03-26T18:39:28.094Z,95610.88
2023-03-26T18:41:55.252Z,95600.03
2023-03-26T18:44:22.262Z,95628.16
2023-03-26T18:46:54.483Z,95599.59
2023-03-26T18:49:22.112Z,95587.13
2023-03-26T18:51:56.899Z,95590.53
2023-03-26T18:54:30.850Z,95590.91
2023-03-26T18:56:58.814Z,95593.28
2023-03-26T18:59:30.811Z,95604.03
2023-03-26T19:01:59.836Z,95593.03
2023-03-26T19:04:31.679Z,95583.84
2023-03-26T19:06:59.321Z,95571.69
2023-03-26T19:09:32.382Z,95573.53
2023-03-26T19:12:16.576Z,95574.91
2023-03-26T19:15:13.970Z,95573.22
2023-03-26T19:17:48.198Z,95574.91
2023-03-26T19:20:30.496Z,95576.25
2023-03-26T19:22:58.222Z,95573.59
2023-03-26T19:25:48.066Z,95571.59
2023-03-26T19:28:25.688Z,95573.44
2023-03-26T19:30:57.490Z,95555.91
2023-03-26T19:33:33.583Z,95551.75
2023-03-26T19:36:17.778Z,95546.75
2023-03-26T19:38:52.038Z,95547.28
2023-03-26T19:41:26.847Z,95551.91
2023-03-26T19:43:57.898Z,95567.13
2023-03-26T19:46:26.680Z,95563.97
2023-03-26T19:48:56.617Z,95562.63
2023-03-26T19:51:35.675Z,95568.03
2023-03-26T19:54:13.811Z,95566.19
2023-03-26T19:56:40.659Z,95567.03
2023-03-26T19:59:07.661Z,95567.03
2023-03-26T20:01:34.821Z,95564.50
2023-03-26T20:04:06.239Z,95563.69
2023-03-26T20:06:43.796Z,95558.19
2023-03-26T20:09:13.124Z,95559.00
2023-03-26T20:11:40.559Z,95556.34
2023-03-26T20:14:16.464Z,95556.69
2023-03-26T20:16:45.289Z,95556.34
2023-03-26T20:19:13.845Z,95558.19
2023-03-26T20:21:41.189Z,95550.19
2023-03-26T20:24:14.548Z,95553.00
2023-03-26T20:26:41.866Z,95545.47
2023-03-26T20:29:08.856Z,95549.81
2023-03-26T20:31:35.673Z,95546.97
2023-03-26T20:34:02.539Z,95552.31
2023-03-26T20:36:33.345Z,95553.16
2023-03-26T20:39:07.915Z,95550.81
2023-03-26T20:41:38.049Z,95557.19
2023-03-26T20:44:13.402Z,95553.72
2023-03-26T20:46:40.298Z,95556.34
2023-03-26T20:49:07.182Z,95555.34
2023-03-26T20:51:33.993Z,95544.47
2023-03-26T20:54:00.832Z,95540.81
2023-03-26T20:56:28.088Z,95543.31
2023-03-26T20:59:09.979Z,95545.78
2023-03-26T21:01:38.570Z,95543.78
2023-03-26T21:04:06.453Z,95545.25
2023-03-26T21:06:33.435Z,95549.25
2023-03-26T21:09:00.693Z,95546.28
2023-03-26T21:11:51.931Z,95554.47
2023-03-26T21:14:21.753Z,95555.59
2023-03-26T21:16:49.137Z,95555.25
2023-03-26T21:19:16.292Z,95552.25
2023-03-26T21:22:05.757Z,95554.94
2023-03-26T21:24:55.048Z,95549.22
2023-03-26T21:27:51.520Z,95551.53
2023-03-26T21:30:18.828Z,95557.38
2023-03-26T21:32:46.674Z,95560.69
2023-03-26T21:35:14.889Z,95559.31
2023-03-26T21:37:43.913Z,95552.81
2023-03-26T21:40:16.586Z,95554.94
2023-03-26T21:42:49.165Z,95557.09
2023-03-26T21:45:18.070Z,95560.25
2023-03-26T21:47:46.311Z,95566.75
2023-03-26T21:50:21.598Z,95567.38
2023-03-26T21:52:50.670Z,95574.69
2023-03-26T21:55:20.914Z,95573.50
2023-03-26T21:58:28.206Z,95579.06
2023-03-26T22:01:34.421Z,95576.72
2023-03-26T22:04:39.502Z,95573.56
2023-03-26T22:07:18.628Z,95575.59
2023-03-26T22:09:45.748Z,95576.59
2023-03-26T22:12:12.911Z,95584.78
2023-03-26T22:14:40.452Z,95578.81
2023-03-26T22:17:07.371Z,95581.63
2023-03-26T22:19:34.588Z,95590.00
2023-03-26T22:22:02.007Z,95588.34
2023-03-26T22:24:29.567Z,95591.34
2023-03-26T22:26:56.486Z,95594.03
2023-03-26T22:29:23.309Z,95598.72
2023-03-26T22:31:50.088Z,95586.53
2023-03-26T22:34:17.630Z,95599.25
2023-03-26T22:36:44.458Z,95596.09
2023-03-26T22:39:12.181Z,95599.09
2023-03-26T22:41:39.135Z,95621.50
2023-03-26T22:44:19.177Z,95603.94
2023-03-26T22:46:48.790Z,95609.66
2023-03-26T22:49:16.227Z,95614.53
2023-03-26T22:51:43.363Z,95619.19
2023-03-26T22:54:10.208Z,95618.34
2023-03-26T22:56:37.078Z,95632.06
2023-03-26T22:59:04.003Z,95635.09
2023-03-26T23:01:31.070Z,95640.94
2023-03-26T23:03:58.160Z,95626.06
2023-03-26T23:06:25.142Z,95639.59
2023-03-26T23:08:52.028Z,95640.75
2023-03-26T23:11:21.807Z,95650.13
2023-03-26T23:13:48.771Z,95643.94
2023-03-26T23:16:17.373Z,95657.28
2023-03-26T23:18:44.773Z,95647.63
2023-03-26T23:21:19.062Z,95655.13
2023-03-26T23:23:47.042Z,95662.13
2023-03-26T23:26:14.892Z,95657.81
2023-03-26T23:28:43.086Z,95673.97
2023-03-26T23:31:12.196Z,95678.66
2023-03-26T23:33:46.429Z,95682.50
2023-03-26T23:36:19.304Z,95688.19
2023-03-26T23:38:48.038Z,95704.38
2023-03-26T23:41:18.642Z,95721.59
2023-03-26T23:43:54.596Z,95704.69
2023-03-26T23:46:34.477Z,95716.06
2023-03-26T23:49:04.604Z,95731.25
2023-03-26T23:51:32.773Z,95735.25
2023-03-26T23:54:00.365Z,95731.06
2023-03-26T23:56:30.288Z,95743.91
2023-03-26T23:58:58.051Z,95750.25
